ETHA

Altenstadt Army Airfield Airport

Altenstadt, Germany
METAR ETHA 181720Z 21004KT 9999 VCSH FEW030CB BKN120 16/13 Q1020 BLU FCST CANCEL
Observed Flight Rules
Sep-18 @ 17:20 UTC (31 minutes ago) Visual Flight Rules
Wind Visibility Clouds
210° at 4 knots 10,000+ meters
  • Few at 3,000' AGL
  • Broken at 12,000' AGL
Temperatures Readings
Current 16°C / 61°F
Dewpoint 13°C / 55°F
Humidity 83%
Altimeter 30.12" Hg
Pressure 1020 hPa
Elevation 760
METAR ETHA 181720Z 21004KT 9999 VCSH FEW030CB BKN120 16/13 Q1020 BLU FCST CANCEL
Observed Flight Rules
Sep-18 @ 17:20 UTC
(31 minutes ago)
VFR
Wind Visibility
210° at 4 knots 10,000+ meters
Clouds
  • Few at 3,000' AGL
  • Broken at 12,000' AGL
Temperature Dewpoint
16°C / 61°F 13°C / 55°F
Humidity Altimeter Pressure
83% 30.12" Hg 1020 hPa